createdAt,value
2022-10-03T00:01:19.646Z,15.99
2022-10-03T00:02:26.968Z,16.02
2022-10-03T00:03:29.218Z,15.99
2022-10-03T00:04:36.655Z,15.99
2022-10-03T00:05:38.054Z,15.99
2022-10-03T00:06:57.652Z,15.98
2022-10-03T00:08:05.223Z,15.98
2022-10-03T00:09:11.247Z,15.98
2022-10-03T00:10:16.489Z,15.98
2022-10-03T00:11:29.930Z,15.98
2022-10-03T00:12:49.855Z,15.95
2022-10-03T00:13:51.360Z,15.95
2022-10-03T00:15:07.771Z,15.95
2022-10-03T00:16:09.410Z,15.95
2022-10-03T00:17:40.275Z,15.94
2022-10-03T00:18:44.538Z,15.93
2022-10-03T00:20:01.065Z,15.93
2022-10-03T00:21:08.467Z,15.92
2022-10-03T00:22:33.252Z,15.92
2022-10-03T00:23:40.537Z,15.91
2022-10-03T00:24:41.984Z,15.94
2022-10-03T00:25:54.221Z,15.94
2022-10-03T00:27:18.950Z,15.94
2022-10-03T00:28:39.131Z,15.93
2022-10-03T00:29:57.990Z,15.94
2022-10-03T00:31:07.395Z,15.94
2022-10-03T00:32:27.480Z,15.92
2022-10-03T00:33:31.991Z,15.91
2022-10-03T00:34:47.083Z,15.89
2022-10-03T00:35:54.535Z,15.89
2022-10-03T00:37:09.942Z,15.87
2022-10-03T00:38:19.264Z,15.85
2022-10-03T00:39:39.045Z,15.84
2022-10-03T00:41:00.258Z,15.85
2022-10-03T00:42:14.886Z,15.84
2022-10-03T00:43:31.426Z,15.85
2022-10-03T00:44:37.124Z,15.84
2022-10-03T00:45:55.570Z,15.84
2022-10-03T00:47:06.201Z,15.85
2022-10-03T00:48:10.709Z,15.83
2022-10-03T00:49:21.324Z,15.82
2022-10-03T00:50:28.411Z,15.82
2022-10-03T00:51:40.217Z,15.82
2022-10-03T00:53:00.327Z,15.82
2022-10-03T00:54:04.832Z,15.81
2022-10-03T00:55:12.363Z,15.81
2022-10-03T00:56:21.701Z,15.81
2022-10-03T00:57:23.117Z,15.80
2022-10-03T00:58:33.478Z,15.78
2022-10-03T00:59:37.747Z,15.78
2022-10-03T01:00:39.195Z,15.79
2022-10-03T01:01:47.090Z,15.78
2022-10-03T01:02:52.227Z,15.78
2022-10-03T01:04:26.844Z,15.78
2022-10-03T01:05:37.412Z,15.76
2022-10-03T01:06:42.319Z,15.75
2022-10-03T01:08:02.636Z,15.72
2022-10-03T01:09:16.689Z,15.72
2022-10-03T01:10:36.724Z,15.70
2022-10-03T01:11:47.377Z,15.68
2022-10-03T01:12:51.855Z,15.69
2022-10-03T01:13:56.435Z,15.69
2022-10-03T01:15:03.838Z,15.69
2022-10-03T01:16:24.641Z,15.68
2022-10-03T01:17:26.155Z,15.67
2022-10-03T01:18:53.587Z,15.66
2022-10-03T01:20:21.672Z,15.65
2022-10-03T01:21:26.312Z,15.65
2022-10-03T01:22:39.791Z,15.65
2022-10-03T01:23:59.680Z,15.65
2022-10-03T01:25:11.281Z,15.64
2022-10-03T01:26:31.414Z,15.62
2022-10-03T01:28:00.729Z,15.61
2022-10-03T01:29:22.381Z,15.57
2022-10-03T01:30:24.075Z,15.57
2022-10-03T01:31:38.201Z,15.56
2022-10-03T01:32:55.116Z,15.57
2022-10-03T01:34:01.376Z,15.55
2022-10-03T01:35:07.738Z,15.55
2022-10-03T01:36:11.967Z,15.53
2022-10-03T01:37:16.928Z,15.50
2022-10-03T01:38:21.432Z,15.50
2022-10-03T01:39:34.682Z,15.48
2022-10-03T01:40:37.895Z,15.47
2022-10-03T01:41:48.573Z,15.46
2022-10-03T01:43:08.545Z,15.46
2022-10-03T01:44:16.427Z,15.45
2022-10-03T01:45:50.133Z,15.43
2022-10-03T01:47:00.296Z,15.42
2022-10-03T01:48:01.771Z,15.42
2022-10-03T01:49:03.199Z,15.41
2022-10-03T01:50:04.653Z,15.39
2022-10-03T01:51:24.929Z,15.40
2022-10-03T01:52:26.350Z,15.39
2022-10-03T01:53:38.322Z,15.37
2022-10-03T01:54:39.757Z,15.36
2022-10-03T01:55:59.902Z,15.35
2022-10-03T01:57:01.797Z,15.31
2022-10-03T01:58:03.271Z,15.31
2022-10-03T01:59:21.826Z,15.30
2022-10-03T02:00:24.027Z,15.28
2022-10-03T02:01:27.791Z,15.27
2022-10-03T02:02:34.343Z,15.27
2022-10-03T02:03:47.047Z,15.26
2022-10-03T02:04:51.579Z,15.23
2022-10-03T02:06:01.099Z,15.23
2022-10-03T02:07:05.675Z,15.23
2022-10-03T02:08:23.899Z,15.22
2022-10-03T02:09:25.323Z,15.22
2022-10-03T02:10:33.206Z,15.20
2022-10-03T02:11:39.287Z,15.20
2022-10-03T02:12:41.605Z,15.20
2022-10-03T02:13:43.105Z,15.19
2022-10-03T02:14:49.681Z,15.19
2022-10-03T02:16:09.237Z,15.19
2022-10-03T02:17:10.751Z,15.17
2022-10-03T02:18:21.692Z,15.18
2022-10-03T02:19:23.106Z,15.17
2022-10-03T02:20:25.675Z,15.17
2022-10-03T02:21:28.060Z,15.17
2022-10-03T02:22:30.751Z,15.15
2022-10-03T02:23:32.227Z,15.17
2022-10-03T02:24:37.111Z,15.16
2022-10-03T02:25:40.602Z,15.13
2022-10-03T02:27:00.607Z,15.14
2022-10-03T02:28:04.615Z,15.12
2022-10-03T02:29:15.395Z,15.12
2022-10-03T02:30:18.722Z,15.10
2022-10-03T02:31:20.250Z,15.10
2022-10-03T02:32:21.665Z,15.09
2022-10-03T02:33:41.259Z,15.08
2022-10-03T02:35:02.125Z,15.06
2022-10-03T02:36:22.280Z,15.06
2022-10-03T02:37:23.732Z,15.02
2022-10-03T02:38:44.001Z,15.02
2022-10-03T02:40:01.691Z,15.01
2022-10-03T02:41:03.165Z,15.00
2022-10-03T02:42:25.946Z,14.99
2022-10-03T02:43:27.467Z,14.97
2022-10-03T02:44:38.743Z,14.97
2022-10-03T02:45:55.252Z,14.96
2022-10-03T02:46:58.643Z,14.95
2022-10-03T02:48:20.184Z,14.90
2022-10-03T02:49:42.451Z,14.91
2022-10-03T02:50:53.555Z,14.89
2022-10-03T02:52:01.005Z,14.88
2022-10-03T02:53:02.403Z,14.89
2022-10-03T02:54:09.754Z,14.88
2022-10-03T02:55:29.766Z,14.88
2022-10-03T02:56:34.327Z,14.86
2022-10-03T02:57:35.784Z,14.85
2022-10-03T02:58:40.835Z,14.84
2022-10-03T02:59:45.381Z,14.84
2022-10-03T03:01:16.039Z,14.83
2022-10-03T03:02:36.145Z,14.81
2022-10-03T03:03:43.406Z,14.79
2022-10-03T03:05:03.455Z,14.78
2022-10-03T03:06:18.028Z,14.76
2022-10-03T03:07:22.502Z,14.74
2022-10-03T03:08:28.587Z,14.73
2022-10-03T03:09:48.474Z,14.71
2022-10-03T03:11:08.748Z,14.69
2022-10-03T03:12:16.002Z,14.67
2022-10-03T03:13:37.987Z,14.65
2022-10-03T03:14:45.695Z,14.62
2022-10-03T03:15:59.883Z,14.61
2022-10-03T03:17:08.739Z,14.59
2022-10-03T03:18:30.458Z,14.57
2022-10-03T03:19:31.997Z,14.56
2022-10-03T03:20:54.436Z,14.55
2022-10-03T03:22:06.449Z,14.54
2022-10-03T03:23:07.886Z,14.53
2022-10-03T03:24:18.834Z,14.52
2022-10-03T03:25:20.336Z,14.51
2022-10-03T03:26:32.336Z,14.51
2022-10-03T03:27:36.691Z,14.49
2022-10-03T03:28:57.412Z,14.48
2022-10-03T03:30:10.855Z,14.47
2022-10-03T03:31:13.764Z,14.47
2022-10-03T03:32:22.052Z,14.46
2022-10-03T03:33:33.339Z,14.45
2022-10-03T03:35:13.647Z,14.43
2022-10-03T03:36:18.956Z,14.40
2022-10-03T03:37:40.654Z,14.39
2022-10-03T03:38:45.500Z,14.39
2022-10-03T03:40:07.715Z,14.37
2022-10-03T03:41:13.163Z,14.37
2022-10-03T03:42:34.768Z,14.35
2022-10-03T03:43:36.219Z,14.34
2022-10-03T03:44:47.554Z,14.34
2022-10-03T03:45:55.557Z,14.32
2022-10-03T03:47:06.164Z,14.32
2022-10-03T03:48:08.398Z,14.32
2022-10-03T03:49:23.431Z,14.30
2022-10-03T03:50:24.836Z,14.29
2022-10-03T03:51:33.215Z,14.29
2022-10-03T03:52:46.427Z,14.29
2022-10-03T03:54:03.162Z,14.29
2022-10-03T03:55:15.235Z,14.27
2022-10-03T03:56:48.908Z,14.26
2022-10-03T03:58:09.135Z,14.25
2022-10-03T03:59:12.714Z,14.24
2022-10-03T04:00:17.048Z,14.24
2022-10-03T04:01:24.906Z,14.22
2022-10-03T04:02:42.423Z,14.23
2022-10-03T04:04:02.635Z,14.22
2022-10-03T04:05:23.746Z,14.21
2022-10-03T04:06:48.558Z,14.20
2022-10-03T04:08:12.326Z,14.18
2022-10-03T04:09:32.796Z,14.17
2022-10-03T04:10:49.219Z,14.15
2022-10-03T04:12:05.491Z,14.15
2022-10-03T04:13:07.831Z,14.13
2022-10-03T04:14:15.315Z,14.12
2022-10-03T04:15:16.782Z,14.12
2022-10-03T04:16:55.850Z,14.11
2022-10-03T04:18:28.178Z,14.08
2022-10-03T04:19:41.678Z,14.06
2022-10-03T04:20:56.217Z,14.05
2022-10-03T04:22:12.039Z,14.04
2022-10-03T04:23:31.713Z,14.05
2022-10-03T04:24:52.134Z,14.04
2022-10-03T04:26:09.014Z,14.01
2022-10-03T04:27:10.483Z,14.01
2022-10-03T04:28:26.739Z,13.99
2022-10-03T04:29:31.234Z,14.00
2022-10-03T04:30:51.614Z,13.98
2022-10-03T04:32:16.357Z,13.98
2022-10-03T04:33:32.863Z,13.97
2022-10-03T04:34:40.115Z,13.95
2022-10-03T04:36:11.131Z,13.93
2022-10-03T04:37:12.536Z,13.92
2022-10-03T04:38:16.742Z,13.91
2022-10-03T04:39:37.098Z,13.91
2022-10-03T04:40:45.187Z,13.90
2022-10-03T04:42:04.979Z,13.90
2022-10-03T04:43:09.954Z,13.90
2022-10-03T04:44:15.613Z,13.86
2022-10-03T04:45:19.855Z,13.86
2022-10-03T04:46:21.345Z,13.86
2022-10-03T04:47:32.287Z,13.87
2022-10-03T04:48:51.773Z,13.87
2022-10-03T04:49:56.220Z,13.87
2022-10-03T04:51:08.936Z,13.87
2022-10-03T04:52:16.695Z,13.86
2022-10-03T04:53:20.057Z,13.86
2022-10-03T04:54:24.323Z,13.87
2022-10-03T04:55:35.888Z,13.86
2022-10-03T04:56:52.417Z,13.84
2022-10-03T04:58:04.188Z,13.83
2022-10-03T04:59:25.404Z,13.82
2022-10-03T05:00:31.352Z,13.81
2022-10-03T05:01:41.273Z,13.80
2022-10-03T05:02:47.213Z,13.79
2022-10-03T05:04:10.559Z,13.79
2022-10-03T05:05:19.735Z,13.78
2022-10-03T05:06:26.933Z,13.76
2022-10-03T05:07:47.343Z,13.75
2022-10-03T05:09:01.311Z,13.74
2022-10-03T05:10:09.207Z,13.73
2022-10-03T05:11:13.386Z,13.70
2022-10-03T05:12:30.996Z,13.69
2022-10-03T05:13:49.377Z,13.68
2022-10-03T05:14:50.883Z,13.65
2022-10-03T05:15:56.795Z,13.65
2022-10-03T05:17:06.240Z,13.64
2022-10-03T05:18:14.522Z,13.62
2022-10-03T05:19:20.307Z,13.61
2022-10-03T05:20:40.967Z,13.60
2022-10-03T05:22:08.879Z,13.57
2022-10-03T05:23:10.270Z,13.55
2022-10-03T05:24:26.803Z,13.53
2022-10-03T05:25:31.294Z,13.53
2022-10-03T05:26:47.451Z,13.52
2022-10-03T05:27:53.766Z,13.53
2022-10-03T05:29:02.500Z,13.53
2022-10-03T05:30:04.036Z,13.50
2022-10-03T05:31:24.383Z,13.50
2022-10-03T05:32:41.131Z,13.50
2022-10-03T05:33:45.674Z,13.51
2022-10-03T05:34:47.090Z,13.49
2022-10-03T05:35:52.267Z,13.49
2022-10-03T05:36:56.935Z,13.49
2022-10-03T05:37:58.333Z,13.49
2022-10-03T05:39:18.514Z,13.47
2022-10-03T05:40:24.527Z,13.47
2022-10-03T05:41:26.978Z,13.47
2022-10-03T05:42:28.420Z,13.46
2022-10-03T05:43:58.368Z,13.46
2022-10-03T05:45:04.400Z,13.45
2022-10-03T05:46:24.479Z,13.45
2022-10-03T05:47:48.896Z,13.42
2022-10-03T05:48:52.468Z,13.43
2022-10-03T05:50:01.458Z,13.45
2022-10-03T05:51:17.957Z,13.44
2022-10-03T05:52:19.414Z,13.46
2022-10-03T05:53:33.064Z,13.47
2022-10-03T05:54:49.603Z,13.48
2022-10-03T05:55:57.126Z,13.49
2022-10-03T05:57:03.969Z,13.50
2022-10-03T05:58:05.399Z,13.47
2022-10-03T05:59:06.858Z,13.46
2022-10-03T06:00:24.021Z,13.48
2022-10-03T06:01:25.502Z,13.47
2022-10-03T06:02:51.403Z,13.49
2022-10-03T06:03:52.917Z,13.52
2022-10-03T06:04:54.357Z,13.53
2022-10-03T06:06:08.048Z,13.55
2022-10-03T06:07:28.360Z,13.57
2022-10-03T06:08:44.863Z,13.59
2022-10-03T06:10:04.601Z,13.57
2022-10-03T06:11:24.721Z,13.61
2022-10-03T06:12:35.450Z,13.61
2022-10-03T06:13:45.801Z,13.65
2022-10-03T06:14:59.776Z,13.67
2022-10-03T06:16:23.012Z,13.68
2022-10-03T06:17:30.131Z,13.71
2022-10-03T06:18:37.546Z,13.73
2022-10-03T06:19:57.787Z,13.74
2022-10-03T06:21:05.178Z,13.77
2022-10-03T06:22:10.284Z,13.81
2022-10-03T06:23:31.165Z,13.84
2022-10-03T06:24:41.601Z,13.90
2022-10-03T06:25:55.270Z,13.94
2022-10-03T06:27:05.639Z,13.98
2022-10-03T06:28:20.126Z,14.04
2022-10-03T06:29:25.022Z,14.08
2022-10-03T06:30:46.622Z,14.12
2022-10-03T06:31:50.505Z,14.19
2022-10-03T06:32:51.916Z,14.22
2022-10-03T06:34:02.427Z,14.28
2022-10-03T06:35:04.352Z,14.33
2022-10-03T06:36:05.887Z,14.38
2022-10-03T06:37:15.675Z,14.43
2022-10-03T06:38:26.558Z,14.49
2022-10-03T06:39:35.062Z,14.53
2022-10-03T06:40:37.211Z,14.60
2022-10-03T06:41:57.525Z,14.65
2022-10-03T06:43:11.242Z,14.72
2022-10-03T06:44:12.861Z,14.76
2022-10-03T06:45:25.610Z,14.80
2022-10-03T06:46:40.189Z,14.84
2022-10-03T06:47:51.356Z,14.89
2022-10-03T06:48:55.760Z,14.94
2022-10-03T06:50:19.453Z,14.99
2022-10-03T06:51:28.302Z,15.08
2022-10-03T06:52:36.207Z,15.13
2022-10-03T06:53:37.640Z,15.19
2022-10-03T06:54:42.057Z,15.25
2022-10-03T06:55:43.582Z,15.33
2022-10-03T06:56:50.907Z,15.40
2022-10-03T06:58:07.157Z,15.49
2022-10-03T06:59:08.616Z,15.57
2022-10-03T07:00:12.001Z,15.65
2022-10-03T07:01:13.457Z,15.72
2022-10-03T07:02:21.700Z,15.77
2022-10-03T07:03:23.200Z,15.84
2022-10-03T07:04:44.910Z,15.89
2022-10-03T07:05:59.163Z,16.00
2022-10-03T07:07:12.597Z,16.06
2022-10-03T07:08:32.408Z,16.13
2022-10-03T07:09:43.095Z,16.25
2022-10-03T07:10:53.412Z,16.33
2022-10-03T07:12:09.699Z,16.40
2022-10-03T07:13:14.475Z,16.48
2022-10-03T07:14:38.995Z,16.56
2022-10-03T07:16:25.406Z,16.67
2022-10-03T07:17:27.224Z,16.77
2022-10-03T07:18:47.807Z,16.87
2022-10-03T07:20:10.651Z,16.98
2022-10-03T07:21:39.058Z,17.09
2022-10-03T07:22:55.981Z,17.20
2022-10-03T07:24:15.630Z,17.25
2022-10-03T07:25:26.233Z,17.37
2022-10-03T07:26:27.656Z,17.47
2022-10-03T07:27:51.102Z,17.53
2022-10-03T07:28:52.894Z,17.68
2022-10-03T07:29:54.388Z,17.75
2022-10-03T07:31:01.511Z,17.82
2022-10-03T07:32:11.455Z,17.90
2022-10-03T07:33:38.139Z,18.00
2022-10-03T07:34:53.699Z,18.15
2022-10-03T07:36:13.499Z,18.28
2022-10-03T07:37:52.257Z,18.38
2022-10-03T07:38:58.712Z,18.52
2022-10-03T07:40:18.488Z,18.63
2022-10-03T07:41:31.270Z,18.78
2022-10-03T07:42:32.743Z,18.94
2022-10-03T07:44:03.996Z,19.03
2022-10-03T07:45:14.299Z,19.16
2022-10-03T07:46:39.327Z,19.30
2022-10-03T07:47:52.887Z,19.45
2022-10-03T07:49:03.126Z,19.61
2022-10-03T07:50:18.055Z,19.76
2022-10-03T07:51:19.519Z,19.91
2022-10-03T07:52:24.447Z,20.10
2022-10-03T07:53:44.648Z,20.26
2022-10-03T07:55:04.760Z,20.42
2022-10-03T07:56:25.453Z,20.57
2022-10-03T07:57:35.272Z,20.77
2022-10-03T07:58:55.574Z,20.93
2022-10-03T08:00:06.571Z,21.09
2022-10-03T08:01:34.806Z,21.32
2022-10-03T08:02:42.329Z,21.52
2022-10-03T08:03:43.939Z,21.67
2022-10-03T08:04:48.450Z,21.81
2022-10-03T08:06:07.978Z,21.96
2022-10-03T08:07:12.451Z,22.16
2022-10-03T08:08:13.853Z,22.30
2022-10-03T08:09:20.083Z,22.37
2022-10-03T08:10:21.645Z,22.53
2022-10-03T08:11:29.675Z,22.66
2022-10-03T08:12:38.444Z,22.79
2022-10-03T08:13:49.456Z,22.93
2022-10-03T08:15:04.914Z,23.06
2022-10-03T08:16:06.398Z,23.17
2022-10-03T08:17:13.665Z,23.23
2022-10-03T08:18:26.522Z,23.29
2022-10-03T08:19:46.780Z,23.40
2022-10-03T08:20:48.264Z,23.47
2022-10-03T08:21:49.668Z,23.55
2022-10-03T08:22:54.180Z,23.62
2022-10-03T08:24:14.562Z,23.72
2022-10-03T08:25:29.319Z,23.72
2022-10-03T08:26:34.410Z,23.87
2022-10-03T08:27:41.763Z,23.96
2022-10-03T08:28:47.197Z,24.00
2022-10-03T08:30:01.061Z,24.05
2022-10-03T08:31:21.136Z,24.08
2022-10-03T08:32:47.768Z,24.20
2022-10-03T08:33:52.621Z,24.26
2022-10-03T08:34:57.306Z,24.35
2022-10-03T08:36:17.187Z,24.48
2022-10-03T08:37:37.392Z,24.60
2022-10-03T08:38:41.730Z,24.76
2022-10-03T08:39:49.028Z,24.89
2022-10-03T08:40:53.632Z,25.06
2022-10-03T08:41:55.506Z,25.22
2022-10-03T08:43:03.927Z,25.31
2022-10-03T08:44:28.184Z,25.42
2022-10-03T08:45:40.793Z,25.61
2022-10-03T08:46:51.649Z,25.76
2022-10-03T08:48:12.527Z,25.91
2022-10-03T08:49:34.065Z,26.06
2022-10-03T08:51:08.036Z,25.97
2022-10-03T08:52:09.455Z,26.10
2022-10-03T08:53:16.975Z,26.22
2022-10-03T08:54:31.068Z,26.33
2022-10-03T08:55:51.267Z,26.40
2022-10-03T08:57:08.347Z,26.60
2022-10-03T08:58:12.659Z,26.72
2022-10-03T08:59:26.118Z,26.81
2022-10-03T09:00:27.567Z,26.90
2022-10-03T09:01:32.113Z,27.02
2022-10-03T09:03:20.167Z,27.09
2022-10-03T09:04:16.722Z,27.28
2022-10-03T09:05:36.679Z,27.33
2022-10-03T09:07:16.532Z,27.40
2022-10-03T09:08:33.882Z,27.49
2022-10-03T09:09:51.317Z,27.56
2022-10-03T09:10:55.385Z,27.63
2022-10-03T09:12:05.966Z,27.72
2022-10-03T09:13:26.127Z,27.80
2022-10-03T09:14:34.505Z,27.92
2022-10-03T09:15:55.002Z,28.04
2022-10-03T09:17:06.314Z,28.03
2022-10-03T09:18:08.068Z,28.03
2022-10-03T09:19:18.375Z,28.11
2022-10-03T09:20:38.631Z,28.21
2022-10-03T09:21:49.417Z,28.38
2022-10-03T09:23:09.479Z,28.50
2022-10-03T09:24:23.027Z,28.61
2022-10-03T09:25:35.051Z,28.71
2022-10-03T09:26:45.436Z,28.71
2022-10-03T09:28:05.793Z,28.77
2022-10-03T09:29:16.455Z,28.86
2022-10-03T09:30:23.782Z,28.90
2022-10-03T09:31:25.438Z,28.90
2022-10-03T09:32:45.544Z,29.08
2022-10-03T09:33:55.939Z,29.23
2022-10-03T09:35:07.307Z,29.30
2022-10-03T09:36:15.491Z,29.31
2022-10-03T09:37:30.531Z,29.26
2022-10-03T09:38:31.981Z,29.21
2022-10-03T09:39:45.634Z,29.19
2022-10-03T09:40:56.619Z,29.09
2022-10-03T09:42:16.905Z,28.85
2022-10-03T09:43:24.470Z,28.68
2022-10-03T09:44:34.782Z,28.67
2022-10-03T09:45:45.484Z,28.58
2022-10-03T09:47:23.987Z,28.49
2022-10-03T09:48:34.888Z,28.36
2022-10-03T09:49:42.111Z,28.11
2022-10-03T09:50:54.081Z,28.08
2022-10-03T09:51:55.540Z,28.07
2022-10-03T09:53:02.444Z,27.97
2022-10-03T09:54:16.767Z,27.86
2022-10-03T09:55:24.003Z,27.74
2022-10-03T09:56:25.468Z,27.61
2022-10-03T09:57:48.186Z,27.43
2022-10-03T09:58:49.663Z,27.24
2022-10-03T09:59:51.074Z,27.15
2022-10-03T10:00:52.611Z,27.19
2022-10-03T10:02:03.588Z,27.18
2022-10-03T10:03:10.162Z,27.21
2022-10-03T10:04:14.533Z,27.24
2022-10-03T10:05:16.046Z,27.23
2022-10-03T10:06:27.139Z,27.27
2022-10-03T10:07:47.507Z,27.39
2022-10-03T10:08:58.199Z,27.45
2022-10-03T10:10:16.374Z,27.51
2022-10-03T10:11:23.354Z,27.67
2022-10-03T10:12:33.655Z,27.80
2022-10-03T10:14:06.356Z,27.88
2022-10-03T10:15:02.303Z,28.00
2022-10-03T10:16:08.388Z,28.04
2022-10-03T10:17:19.146Z,28.15
2022-10-03T10:18:20.622Z,28.26
2022-10-03T10:19:22.155Z,28.41
2022-10-03T10:20:42.300Z,28.62
2022-10-03T10:21:49.686Z,28.76
2022-10-03T10:23:11.063Z,28.85
2022-10-03T10:24:21.677Z,28.86
2022-10-03T10:25:32.318Z,28.81
2022-10-03T10:26:53.842Z,28.70
2022-10-03T10:28:05.128Z,28.72
2022-10-03T10:29:25.268Z,28.66
2022-10-03T10:30:27.119Z,28.65
2022-10-03T10:31:46.173Z,28.73
2022-10-03T10:33:06.676Z,28.88
2022-10-03T10:34:11.119Z,28.89
2022-10-03T10:35:18.238Z,28.94
2022-10-03T10:36:38.305Z,29.06
2022-10-03T10:37:46.480Z,29.27
2022-10-03T10:39:06.611Z,29.36
2022-10-03T10:40:27.128Z,29.52
2022-10-03T10:41:37.859Z,29.48
2022-10-03T10:42:45.748Z,29.49
2022-10-03T10:43:53.194Z,29.47
2022-10-03T10:44:55.815Z,29.30
2022-10-03T10:46:29.604Z,29.13
2022-10-03T10:47:46.031Z,28.95
2022-10-03T10:48:47.466Z,28.67
2022-10-03T10:49:51.987Z,28.49
2022-10-03T10:50:59.306Z,28.29
2022-10-03T10:52:00.710Z,28.19
2022-10-03T10:53:20.843Z,28.14
2022-10-03T10:54:25.032Z,28.09
2022-10-03T10:55:46.333Z,28.14
2022-10-03T10:56:47.827Z,28.21
2022-10-03T10:58:08.659Z,28.32
2022-10-03T10:59:28.996Z,28.42
2022-10-03T11:00:31.513Z,28.49
2022-10-03T11:01:40.839Z,28.34
2022-10-03T11:03:00.710Z,28.22
2022-10-03T11:04:10.987Z,28.23
2022-10-03T11:05:32.705Z,28.23
2022-10-03T11:06:53.508Z,28.06
2022-10-03T11:08:07.219Z,27.90
2022-10-03T11:09:11.535Z,27.80
2022-10-03T11:10:28.192Z,27.75
2022-10-03T11:11:48.525Z,27.60
2022-10-03T11:13:00.770Z,27.53
2022-10-03T11:14:26.585Z,27.34
2022-10-03T11:15:47.679Z,27.17
2022-10-03T11:16:58.211Z,26.95
2022-10-03T11:18:18.571Z,26.85
2022-10-03T11:19:26.642Z,26.67
2022-10-03T11:20:33.694Z,26.58
2022-10-03T11:21:53.548Z,26.58
2022-10-03T11:23:13.518Z,26.49
2022-10-03T11:24:33.556Z,26.42
2022-10-03T11:25:50.933Z,26.39
2022-10-03T11:26:59.366Z,26.35
2022-10-03T11:28:20.571Z,26.30
2022-10-03T11:29:40.906Z,26.25
2022-10-03T11:30:42.795Z,26.19
2022-10-03T11:32:03.265Z,26.15
2022-10-03T11:33:05.331Z,26.04
2022-10-03T11:34:16.176Z,25.94
2022-10-03T11:35:17.590Z,25.85
2022-10-03T11:36:32.333Z,25.74
2022-10-03T11:37:43.974Z,25.71
2022-10-03T11:38:55.035Z,25.63
2022-10-03T11:40:03.742Z,25.57
2022-10-03T11:41:13.803Z,25.56
2022-10-03T11:42:18.307Z,25.53
2022-10-03T11:43:22.534Z,25.53
2022-10-03T11:44:25.047Z,25.43
2022-10-03T11:45:28.907Z,25.37
2022-10-03T11:46:50.273Z,25.34
2022-10-03T11:47:52.710Z,25.24
2022-10-03T11:49:07.022Z,25.31
2022-10-03T11:50:18.846Z,25.32
2022-10-03T11:51:23.419Z,25.25
2022-10-03T11:52:33.211Z,25.18
2022-10-03T11:53:44.641Z,25.18
2022-10-03T11:54:46.391Z,25.16
2022-10-03T11:56:08.219Z,25.17
2022-10-03T11:57:13.687Z,25.13
2022-10-03T11:58:32.331Z,25.17
2022-10-03T11:59:45.434Z,25.13
2022-10-03T12:00:47.478Z,25.12
2022-10-03T12:02:06.922Z,25.12
2022-10-03T12:03:14.366Z,25.08
2022-10-03T12:04:20.842Z,25.03
2022-10-03T12:05:40.975Z,25.02
2022-10-03T12:07:07.888Z,24.94
2022-10-03T12:08:48.299Z,24.88
2022-10-03T12:09:59.039Z,24.85
2022-10-03T12:11:00.512Z,24.83
2022-10-03T12:12:09.719Z,24.84
2022-10-03T12:13:16.557Z,24.83
2022-10-03T12:14:27.931Z,24.78
2022-10-03T12:15:29.352Z,24.76
2022-10-03T12:16:32.592Z,24.78
2022-10-03T12:17:37.060Z,24.78
2022-10-03T12:18:42.755Z,24.80
2022-10-03T12:19:50.408Z,24.80
2022-10-03T12:21:08.239Z,24.82
2022-10-03T12:22:09.773Z,24.82
2022-10-03T12:23:17.275Z,24.83
2022-10-03T12:24:18.726Z,24.83
2022-10-03T12:25:24.048Z,24.83
2022-10-03T12:26:28.890Z,24.84
2022-10-03T12:27:30.983Z,24.85
2022-10-03T12:28:39.896Z,24.86
2022-10-03T12:29:45.732Z,24.85
2022-10-03T12:30:55.418Z,24.87
2022-10-03T12:32:09.079Z,24.87
2022-10-03T12:33:19.983Z,24.84
2022-10-03T12:34:39.738Z,24.77
2022-10-03T12:35:50.663Z,24.71
2022-10-03T12:36:53.172Z,24.72
2022-10-03T12:37:58.355Z,24.70
2022-10-03T12:39:05.748Z,24.71
2022-10-03T12:40:13.244Z,24.72
2022-10-03T12:41:20.941Z,24.73
2022-10-03T12:42:27.122Z,24.70
2022-10-03T12:43:35.044Z,24.68
2022-10-03T12:44:45.635Z,24.64
2022-10-03T12:46:01.433Z,24.61
2022-10-03T12:47:54.203Z,24.61
2022-10-03T12:49:00.092Z,24.64
2022-10-03T12:50:21.271Z,24.63
2022-10-03T12:51:23.253Z,24.63
2022-10-03T12:52:24.746Z,24.63
2022-10-03T12:53:31.989Z,24.63
2022-10-03T12:54:33.398Z,24.63
2022-10-03T12:55:35.371Z,24.60
2022-10-03T12:56:45.707Z,24.55
2022-10-03T12:57:54.834Z,24.56
2022-10-03T12:59:15.051Z,24.54
2022-10-03T13:00:20.980Z,24.52
2022-10-03T13:01:38.092Z,24.47
2022-10-03T13:02:42.961Z,24.46
2022-10-03T13:03:53.786Z,24.42
2022-10-03T13:05:18.162Z,24.36
2022-10-03T13:07:01.933Z,24.36
2022-10-03T13:08:00.490Z,24.35
2022-10-03T13:09:20.956Z,24.34
2022-10-03T13:10:25.686Z,24.32
2022-10-03T13:11:27.193Z,24.32
2022-10-03T13:12:55.683Z,24.33
2022-10-03T13:14:15.809Z,24.33
2022-10-03T13:15:35.851Z,24.31
2022-10-03T13:16:56.244Z,24.34
2022-10-03T13:18:06.633Z,24.35
2022-10-03T13:19:21.521Z,24.34
2022-10-03T13:20:27.582Z,24.35
2022-10-03T13:21:46.843Z,24.36
2022-10-03T13:22:53.024Z,24.34
2022-10-03T13:23:57.543Z,24.32
2022-10-03T13:25:08.782Z,24.34
2022-10-03T13:26:18.329Z,24.36
2022-10-03T13:27:22.798Z,24.40
2022-10-03T13:28:31.374Z,24.43
2022-10-03T13:29:42.867Z,24.47
2022-10-03T13:30:48.337Z,24.47
2022-10-03T13:31:55.174Z,24.50
2022-10-03T13:32:57.868Z,24.51
2022-10-03T13:34:00.535Z,24.54
2022-10-03T13:35:24.889Z,24.54
2022-10-03T13:36:28.199Z,24.56
2022-10-03T13:37:35.704Z,24.55
2022-10-03T13:38:47.371Z,24.55
2022-10-03T13:39:52.143Z,24.53
2022-10-03T13:41:12.421Z,24.54
2022-10-03T13:42:33.383Z,24.52
2022-10-03T13:43:37.823Z,24.48
2022-10-03T13:44:39.290Z,24.50
2022-10-03T13:45:41.644Z,24.47
2022-10-03T13:46:48.917Z,24.45
2022-10-03T13:47:54.719Z,24.38
2022-10-03T13:49:01.687Z,24.36
2022-10-03T13:50:10.955Z,24.37
2022-10-03T13:51:16.503Z,24.41
2022-10-03T13:52:21.730Z,24.44
2022-10-03T13:53:49.119Z,24.46
2022-10-03T13:54:50.699Z,24.50
2022-10-03T13:55:58.071Z,24.52
2022-10-03T13:57:02.130Z,24.54
2022-10-03T13:58:15.828Z,24.55
2022-10-03T13:59:23.451Z,24.57
2022-10-03T14:00:26.268Z,24.58
2022-10-03T14:01:27.909Z,24.59
2022-10-03T14:02:41.780Z,24.60
2022-10-03T14:03:56.211Z,24.56
2022-10-03T14:05:00.895Z,24.56
2022-10-03T14:06:10.704Z,24.57
2022-10-03T14:07:22.493Z,24.59
2022-10-03T14:08:47.003Z,24.61
2022-10-03T14:10:06.845Z,24.56
2022-10-03T14:11:22.721Z,24.54
2022-10-03T14:12:54.524Z,24.52
2022-10-03T14:14:05.521Z,24.53
2022-10-03T14:15:13.220Z,24.55
2022-10-03T14:16:27.659Z,24.57
2022-10-03T14:17:47.542Z,24.59
2022-10-03T14:18:49.087Z,24.61
2022-10-03T14:19:57.335Z,24.61
2022-10-03T14:21:17.145Z,24.62
2022-10-03T14:22:32.811Z,24.66
2022-10-03T14:23:34.220Z,24.71
2022-10-03T14:24:37.253Z,24.73
2022-10-03T14:25:48.865Z,24.76
2022-10-03T14:26:53.279Z,24.81
2022-10-03T14:27:55.700Z,24.81
2022-10-03T14:29:12.304Z,24.81
2022-10-03T14:30:17.474Z,24.76
2022-10-03T14:31:24.189Z,24.77
2022-10-03T14:32:48.026Z,24.77
2022-10-03T14:33:49.621Z,24.73
2022-10-03T14:34:51.307Z,24.69
2022-10-03T14:36:08.835Z,24.68
2022-10-03T14:37:22.042Z,24.69
2022-10-03T14:38:46.404Z,24.68
2022-10-03T14:40:03.632Z,24.68
2022-10-03T14:41:05.352Z,24.62
2022-10-03T14:42:15.554Z,24.67
2022-10-03T14:43:16.945Z,24.68
2022-10-03T14:44:21.430Z,24.68
2022-10-03T14:45:24.171Z,24.68
2022-10-03T14:46:27.006Z,24.68
2022-10-03T14:47:33.832Z,24.67
2022-10-03T14:48:38.754Z,24.67
2022-10-03T14:49:54.987Z,24.68
2022-10-03T14:51:20.327Z,24.69
2022-10-03T14:52:21.935Z,24.70
2022-10-03T14:53:25.064Z,24.73
2022-10-03T14:54:27.039Z,24.72
2022-10-03T14:55:31.831Z,24.70
2022-10-03T14:56:34.915Z,24.69
2022-10-03T14:57:58.710Z,24.70
2022-10-03T14:59:00.402Z,24.70
2022-10-03T15:00:01.879Z,24.72
2022-10-03T15:01:12.439Z,24.73
2022-10-03T15:02:33.930Z,24.73
2022-10-03T15:03:38.723Z,24.75
2022-10-03T15:04:42.235Z,24.75
2022-10-03T15:05:53.239Z,24.74
2022-10-03T15:07:00.240Z,24.75
2022-10-03T15:08:13.607Z,24.75
2022-10-03T15:09:15.091Z,24.74
2022-10-03T15:10:18.479Z,24.73
2022-10-03T15:11:24.272Z,24.71
2022-10-03T15:12:27.639Z,24.69
2022-10-03T15:13:29.139Z,24.67
2022-10-03T15:14:31.076Z,24.65
2022-10-03T15:15:35.570Z,24.63
2022-10-03T15:17:06.871Z,24.60
2022-10-03T15:18:12.974Z,24.58
2022-10-03T15:19:18.590Z,24.53